Time;durP1;ratioP1;P1;durP2;ratioP2;P2;SDS_P1;SDS_P2;PMS_P1;PMS_P2;Temp;Humidity;BMP_temperature;BMP_pressure;BME280_temperature;BME280_humidity;BME280_pressure;Samples;Min_cycle;Max_cycle;Signal;HPM_P1;HPM_P2
2023/01/21 00:00:56;;;;;;;11.47;8.27;;;;;;;-0.26;100.00;99161.50;6159468;23;20285;-80
2023/01/21 00:03:23;;;;;;;11.63;8.40;;;;;;;-0.33;100.00;99168.41;6185760;23;20281;-81
2023/01/21 00:05:50;;;;;;;9.40;7.20;;;;;;;-0.38;100.00;99154.91;6184200;23;20213;-80
2023/01/21 00:08:17;;;;;;;12.43;7.93;;;;;;;-0.40;100.00;99166.56;6158798;23;20230;-82
2023/01/21 00:10:43;;;;;;;12.80;8.57;;;;;;;-0.40;100.00;99150.78;6185787;23;20241;-80
2023/01/21 00:13:10;;;;;;;12.13;8.20;;;;;;;-0.41;100.00;99167.53;6159335;23;20216;-80
2023/01/21 00:15:37;;;;;;;12.10;8.13;;;;;;;-0.40;100.00;99166.56;6185557;23;20208;-80
2023/01/21 00:18:03;;;;;;;11.53;7.90;;;;;;;-0.43;100.00;99156.38;6185011;23;20205;-80
2023/01/21 00:20:30;;;;;;;11.47;7.40;;;;;;;-0.53;100.00;99164.41;6159249;23;20248;-79
2023/01/21 00:22:56;;;;;;;8.53;7.17;;;;;;;-0.50;100.00;99164.91;6159512;23;20201;-79
2023/01/21 00:25:23;;;;;;;11.07;7.27;;;;;;;-0.52;100.00;99166.06;6185284;23;20290;-79
2023/01/21 00:27:50;;;;;;;11.20;7.30;;;;;;;-0.51;100.00;99160.59;6159261;23;20289;-78
2023/01/21 00:30:16;;;;;;;9.33;6.63;;;;;;;-0.61;100.00;99164.38;6184543;23;20671;-77
2023/01/21 00:32:44;;;;;;;11.83;7.97;;;;;;;-0.71;100.00;99147.91;6158931;23;20214;-78
2023/01/21 00:35:11;;;;;;;11.13;7.70;;;;;;;-0.79;100.00;99158.41;6185254;23;20209;-78
2023/01/21 00:37:37;;;;;;;10.63;6.70;;;;;;;-0.69;100.00;99162.53;6185336;23;20206;-78
2023/01/21 00:40:05;;;;;;;9.43;6.93;;;;;;;-0.75;100.00;99165.00;6184618;23;20293;-77
2023/01/21 00:42:31;;;;;;;10.33;8.10;;;;;;;-0.81;100.00;99157.72;6185219;23;20293;-78
2023/01/21 00:44:58;;;;;;;12.07;8.47;;;;;;;-0.79;100.00;99163.66;6185284;23;20675;-78
2023/01/21 00:47:25;;;;;;;10.83;7.87;;;;;;;-0.78;100.00;99157.41;6185166;23;20268;-78
2023/01/21 00:49:52;;;;;;;11.10;7.43;;;;;;;-0.78;100.00;99157.41;6184845;23;20530;-78
2023/01/21 00:52:18;;;;;;;10.93;7.70;;;;;;;-0.88;100.00;99149.63;6184917;23;20186;-78
2023/01/21 00:54:45;;;;;;;10.73;7.53;;;;;;;-0.85;100.00;99151.97;6184885;23;20202;-79
2023/01/21 00:57:12;;;;;;;9.77;7.90;;;;;;;-0.90;100.00;99154.25;6184947;23;20241;-78
2023/01/21 00:59:39;;;;;;;10.43;7.60;;;;;;;-0.93;100.00;99136.97;6158713;23;20677;-78
2023/01/21 01:02:06;;;;;;;11.23;8.47;;;;;;;-0.98;100.00;99136.59;6184636;23;20665;-77
2023/01/21 01:04:33;;;;;;;10.47;7.70;;;;;;;-1.00;100.00;99135.13;6184564;23;20213;-79
2023/01/21 01:07:00;;;;;;;12.43;8.10;;;;;;;-0.96;100.00;99134.66;6184608;23;20210;-78
2023/01/21 01:09:26;;;;;;;11.93;7.87;;;;;;;-0.92;100.00;99137.78;6184827;23;20697;-77
2023/01/21 01:11:53;;;;;;;10.77;7.60;;;;;;;-1.02;100.00;99139.72;6184556;23;20239;-78
2023/01/21 01:14:21;;;;;;;11.37;7.27;;;;;;;-0.96;100.00;99137.28;6184080;23;20209;-77
2023/01/21 01:16:48;;;;;;;11.53;7.93;;;;;;;-0.98;100.00;99141.88;6184231;23;20651;-78
2023/01/21 01:19:15;;;;;;;9.30;7.33;;;;;;;-0.90;100.00;99144.56;6184689;23;20703;-78
2023/01/21 01:21:41;;;;;;;12.03;8.50;;;;;;;-0.85;100.00;99140.63;6184443;23;20210;-78
2023/01/21 01:24:08;;;;;;;10.20;7.17;;;;;;;-0.94;100.00;99135.34;6184239;23;20265;-78
2023/01/21 01:26:35;;;;;;;11.10;7.77;;;;;;;-0.90;100.00;99130.56;6184646;23;20212;-78
2023/01/21 01:29:05;;;;;;;9.17;7.30;;;;;;;-0.87;100.00;99143.41;6184307;23;20241;-77
2023/01/21 01:31:31;;;;;;;11.80;7.87;;;;;;;-0.92;100.00;99143.03;6184189;23;20221;-77
2023/01/21 01:33:58;;;;;;;12.07;8.43;;;;;;;-0.95;100.00;99151.25;6184305;23;20264;-78
2023/01/21 01:36:25;;;;;;;10.37;7.10;;;;;;;-0.85;100.00;99144.06;6184135;23;20205;-78
2023/01/21 01:38:52;;;;;;;11.47;7.97;;;;;;;-0.82;100.00;99156.06;6184826;23;20209;-79
2023/01/21 01:41:26;;;;;;;10.63;7.73;;;;;;;-0.84;100.00;99148.31;6185025;23;20241;-79
2023/01/21 01:43:57;;;;;;;10.97;7.83;;;;;;;-0.83;100.00;99142.09;6184948;23;20240;-79
2023/01/21 01:46:29;;;;;;;12.00;7.83;;;;;;;-0.90;100.00;99134.03;6178250;23;20206;-80
2023/01/21 01:48:59;;;;;;;9.53;6.23;;;;;;;-0.79;100.00;99142.63;6185187;23;20237;-80
2023/01/21 01:51:31;;;;;;;9.97;7.30;;;;;;;-0.89;100.00;99116.44;6158607;23;20670;-81
2023/01/21 01:53:58;;;;;;;9.67;7.20;;;;;;;-0.90;100.00;99127.94;6185019;23;20214;-80
2023/01/21 01:56:26;;;;;;;9.47;6.93;;;;;;;-0.83;100.00;99110.53;6184436;23;20202;-81
2023/01/21 01:58:52;;;;;;;8.93;6.80;;;;;;;-0.79;100.00;99121.59;6157242;23;20694;-80
2023/01/21 02:01:19;;;;;;;9.37;6.47;;;;;;;-0.82;100.00;99108.72;6158881;23;20260;-85
2023/01/21 02:03:51;;;;;;;8.50;5.60;;;;;;;-0.76;100.00;99124.72;6158608;23;20600;-81
2023/01/21 02:06:18;;;;;;;7.97;5.80;;;;;;;-0.78;100.00;99115.31;6134735;23;20210;-80
2023/01/21 02:08:46;;;;;;;7.87;6.07;;;;;;;-0.86;100.00;99123.19;6159084;23;20214;-80
2023/01/21 02:11:17;;;;;;;8.83;6.57;;;;;;;-0.78;100.00;99120.56;6184948;23;20553;-80
2023/01/21 02:13:48;;;;;;;8.20;5.70;;;;;;;-0.72;100.00;99117.31;6184749;23;20210;-81
2023/01/21 02:16:51;;;;;;;8.67;6.00;;;;;;;-0.82;100.00;99109.56;6158409;23;20670;-80
2023/01/21 02:19:55;;;;;;;9.17;6.50;;;;;;;-0.70;100.00;99113.53;6169382;23;20214;-80
2023/01/21 02:22:27;;;;;;;8.93;5.93;;;;;;;-0.74;100.00;99114.84;6184100;23;20232;-79
2023/01/21 02:25:15;;;;;;;8.43;6.73;;;;;;;-0.79;100.00;99111.06;6184820;23;20662;-81
2023/01/21 02:28:03;;;;;;;9.37;6.60;;;;;;;-0.71;100.00;99108.44;6184931;23;20588;-82
2023/01/21 02:30:45;;;;;;;8.70;5.77;;;;;;;-0.68;100.00;99103.69;6184863;23;20208;-80
2023/01/21 02:33:18;;;;;;;8.00;6.20;;;;;;;-0.62;100.00;99110.09;6159214;23;20188;-80
2023/01/21 02:36:04;;;;;;;7.50;5.63;;;;;;;-0.78;100.00;99103.00;6159229;23;20213;-80
2023/01/21 02:38:37;;;;;;;8.40;5.90;;;;;;;-0.70;100.00;99103.00;6184904;23;20228;-80
2023/01/21 02:41:14;;;;;;;7.47;5.53;;;;;;;-0.74;100.00;99101.69;6186817;23;20213;-79
2023/01/21 02:44:07;;;;;;;8.03;5.77;;;;;;;-0.68;100.00;99089.69;6160252;23;20206;-80
2023/01/21 02:46:51;;;;;;;8.03;5.67;;;;;;;-0.74;100.00;99099.03;6170594;23;20557;-80
2023/01/21 02:49:23;;;;;;;8.07;5.47;;;;;;;-0.79;100.00;99098.69;6160710;23;20292;-78
2023/01/21 02:51:50;;;;;;;9.43;5.97;;;;;;;-0.70;100.00;99096.94;6160328;23;20206;-78
2023/01/21 02:54:38;;;;;;;7.67;5.27;;;;;;;-0.77;100.00;99104.63;6185572;23;20202;-77
2023/01/21 02:57:07;;;;;;;7.77;5.27;;;;;;;-0.88;100.00;99104.91;6186071;23;20206;-78
2023/01/21 02:59:34;;;;;;;7.23;4.93;;;;;;;-0.85;100.00;99095.91;6159998;23;20281;-78
2023/01/21 03:02:19;;;;;;;8.57;5.27;;;;;;;-0.81;100.00;99102.50;6160835;23;20206;-78
2023/01/21 03:04:52;;;;;;;7.10;5.40;;;;;;;-0.82;100.00;99111.34;6186150;23;20210;-77
2023/01/21 03:07:25;;;;;;;6.87;4.93;;;;;;;-0.77;100.00;99107.28;6160162;23;20237;-78
2023/01/21 03:09:55;;;;;;;7.30;4.30;;;;;;;-0.86;100.00;99102.16;6160201;23;20268;-78
2023/01/21 03:12:38;;;;;;;8.30;5.57;;;;;;;-0.76;100.00;99098.41;6159884;23;20226;-77
2023/01/21 03:18:12;;;;;;;7.70;4.97;;;;;;;-0.91;100.00;99094.72;6163222;23;20219;-77
2023/01/21 03:20:42;;;;;;;7.13;4.70;;;;;;;-0.81;100.00;99105.13;6160004;23;20252;-78
2023/01/21 03:23:13;;;;;;;6.30;4.93;;;;;;;-0.87;100.00;99106.56;6160348;23;20206;-77
2023/01/21 03:25:40;;;;;;;6.70;4.93;;;;;;;-0.78;100.00;99110.06;6184571;23;20297;-77
2023/01/21 03:28:10;;;;;;;7.73;4.80;;;;;;;-0.86;100.00;99105.59;6159543;23;20557;-78
2023/01/21 03:30:40;;;;;;;6.67;4.87;;;;;;;-0.81;100.00;99116.47;6160041;23;20280;-81
2023/01/21 03:33:08;;;;;;;6.87;5.10;;;;;;;-0.78;100.00;99100.34;6160161;23;20601;-80
2023/01/21 03:35:38;;;;;;;8.73;5.13;;;;;;;-0.70;100.00;99108.25;6160156;23;20667;-82
2023/01/21 03:38:15;;;;;;;6.47;4.70;;;;;;;-0.78;100.00;99108.25;6159846;23;20692;-80
2023/01/21 03:40:57;;;;;;;7.90;4.93;;;;;;;-0.66;100.00;99106.97;6160225;23;20210;-80
2023/01/21 03:43:24;;;;;;;8.83;5.47;;;;;;;-0.82;100.00;99112.19;6159865;23;20206;-81
2023/01/21 03:46:01;;;;;;;7.17;5.07;;;;;;;-0.69;100.00;99111.72;6186149;23;20709;-81
2023/01/21 03:48:35;;;;;;;8.30;5.33;;;;;;;-0.71;100.00;99104.00;6185682;23;20288;-80
2023/01/21 03:51:06;;;;;;;8.00;4.90;;;;;;;-0.73;100.00;99094.63;6159974;23;20280;-80
2023/01/21 03:53:33;;;;;;;7.00;4.77;;;;;;;-0.73;100.00;99099.88;6160145;23;20232;-80
2023/01/21 03:56:00;;;;;;;7.03;5.27;;;;;;;-0.80;100.00;99096.25;6160272;23;20544;-82
2023/01/21 03:58:26;;;;;;;8.97;5.90;;;;;;;-0.78;100.00;99084.56;6185565;23;20713;-80
2023/01/21 04:00:53;;;;;;;7.33;5.40;;;;;;;-0.68;100.00;99090.53;6159979;23;20206;-80
2023/01/21 04:03:20;;;;;;;6.30;4.47;;;;;;;-0.72;100.00;99085.75;6160006;23;20277;-80
2023/01/21 04:05:47;;;;;;;7.03;4.87;;;;;;;-0.70;100.00;99095.09;6186099;23;20209;-80
2023/01/21 04:08:13;;;;;;;7.20;5.20;;;;;;;-0.73;100.00;99091.97;6159109;23;20237;-81
2023/01/21 04:10:40;;;;;;;6.57;5.13;;;;;;;-0.72;100.00;99076.03;6185917;23;20202;-79
2023/01/21 04:13:06;;;;;;;5.87;4.53;;;;;;;-0.61;100.00;99078.38;6185762;23;20230;-80
2023/01/21 04:15:33;;;;;;;7.30;4.63;;;;;;;-0.61;100.00;99075.75;6170741;23;20206;-80
2023/01/21 04:18:00;;;;;;;7.60;5.47;;;;;;;-0.60;100.00;99074.75;6185580;23;20276;-80
2023/01/21 04:20:26;;;;;;;9.73;5.80;;;;;;;-0.62;100.00;99071.47;6185479;23;20636;-80
2023/01/21 04:22:53;;;;;;;6.20;4.53;;;;;;;-0.53;100.00;99075.75;6185721;23;20213;-82
2023/01/21 04:25:19;;;;;;;7.77;5.70;;;;;;;-0.52;100.00;99087.09;6185598;23;20210;-81
2023/01/21 04:27:46;;;;;;;7.03;5.17;;;;;;;-0.50;100.00;99064.06;6185914;23;20208;-79
2023/01/21 04:30:13;;;;;;;6.03;4.73;;;;;;;-0.55;100.00;99074.25;6185292;23;20210;-81
2023/01/21 04:32:40;;;;;;;7.30;5.27;;;;;;;-0.57;100.00;99069.19;6185811;23;20212;-81
2023/01/21 04:35:07;;;;;;;7.17;5.93;;;;;;;-0.48;100.00;99070.84;6159771;23;20675;-81
2023/01/21 04:37:34;;;;;;;7.10;5.13;;;;;;;-0.52;100.00;99076.59;6159700;23;20208;-83
2023/01/21 04:40:00;;;;;;;8.07;5.53;;;;;;;-0.41;100.00;99080.69;6184104;23;20210;-81
2023/01/21 04:42:28;;;;;;;9.30;5.40;;;;;;;-0.52;100.00;99101.09;6185170;23;20228;-77
2023/01/21 04:44:54;;;;;;;6.70;4.83;;;;;;;-0.54;100.00;99082.00;6185374;23;20208;-78
2023/01/21 04:47:21;;;;;;;8.03;5.33;;;;;;;-0.45;100.00;99085.47;6185354;23;20206;-78
2023/01/21 04:49:48;;;;;;;9.50;5.07;;;;;;;-0.42;100.00;99079.84;6185131;23;20202;-78
2023/01/21 04:52:14;;;;;;;7.50;5.37;;;;;;;-0.45;100.00;99088.91;6185327;23;20264;-78
2023/01/21 04:54:41;;;;;;;7.57;4.90;;;;;;;-0.37;100.00;99095.19;6183816;23;20256;-78
2023/01/21 04:57:07;;;;;;;5.27;4.37;;;;;;;-0.35;100.00;99101.94;6185201;23;20280;-78
2023/01/21 04:59:34;;;;;;;6.90;4.87;;;;;;;-0.45;100.00;99109.16;6145156;23;20213;-78
2023/01/21 05:02:00;;;;;;;7.30;5.30;;;;;;;-0.40;100.00;99114.75;6184890;23;20207;-78
2023/01/21 05:04:27;;;;;;;9.37;6.10;;;;;;;-0.33;100.00;99115.75;6184954;23;20206;-78
2023/01/21 05:06:55;;;;;;;7.40;5.33;;;;;;;-0.35;100.00;99122.97;6184716;23;20658;-77
2023/01/21 05:09:21;;;;;;;8.13;5.80;;;;;;;-0.42;100.00;99119.34;6158708;23;20220;-78
2023/01/21 05:11:48;;;;;;;8.33;5.93;;;;;;;-0.38;100.00;99127.75;6184769;23;20280;-78
2023/01/21 05:14:14;;;;;;;7.83;5.53;;;;;;;-0.34;100.00;99113.28;6184530;23;20213;-78
2023/01/21 05:16:41;;;;;;;14.27;6.67;;;;;;;-0.32;100.00;99121.81;6184870;23;20289;-78
2023/01/21 05:19:08;;;;;;;9.17;6.70;;;;;;;-0.30;100.00;99125.97;6185015;23;20726;-77
2023/01/21 05:21:34;;;;;;;10.90;8.50;;;;;;;-0.31;100.00;99134.84;6184788;23;20209;-77
2023/01/21 05:24:01;;;;;;;9.60;6.47;;;;;;;-0.30;100.00;99133.03;6184912;23;20685;-80
2023/01/21 05:26:28;;;;;;;8.60;5.83;;;;;;;-0.29;100.00;99145.22;6183132;23;20539;-79
2023/01/21 05:28:54;;;;;;;8.27;5.63;;;;;;;-0.34;100.00;99158.03;6158732;23;20221;-79
2023/01/21 05:31:21;;;;;;;9.40;6.13;;;;;;;-0.27;100.00;99159.00;6184927;23;20206;-79
2023/01/21 05:33:47;;;;;;;9.57;6.40;;;;;;;-0.34;100.00;99176.47;6184899;23;20210;-80
2023/01/21 05:36:14;;;;;;;8.17;5.50;;;;;;;-0.30;100.00;99164.63;6184478;23;20205;-81
2023/01/21 05:38:41;;;;;;;8.67;5.83;;;;;;;-0.33;100.00;99165.78;6184853;23;20546;-81
2023/01/21 05:41:07;;;;;;;9.90;5.97;;;;;;;-0.38;100.00;99173.34;6184602;23;20202;-80
2023/01/21 05:43:34;;;;;;;7.83;4.50;;;;;;;-0.38;100.00;99170.69;6184922;23;20206;-80
2023/01/21 05:46:01;;;;;;;7.37;5.00;;;;;;;-0.39;100.00;99178.75;6184200;23;20280;-81
2023/01/21 05:48:28;;;;;;;8.53;5.40;;;;;;;-0.43;100.00;99178.25;6185080;23;20202;-80
2023/01/21 05:50:55;;;;;;;7.30;5.53;;;;;;;-0.41;100.00;99188.59;6184927;23;20212;-80
2023/01/21 05:53:24;;;;;;;8.67;5.77;;;;;;;-0.42;100.00;99200.94;6184952;23;20678;-80
2023/01/21 05:55:55;;;;;;;9.50;5.70;;;;;;;-0.43;100.00;99195.84;6158998;23;20226;-81
2023/01/21 05:58:23;;;;;;;9.10;6.03;;;;;;;-0.49;100.00;99202.56;6184560;23;20233;-80
2023/01/21 06:00:49;;;;;;;7.63;5.27;;;;;;;-0.56;100.00;99198.94;6185130;23;20213;-81
2023/01/21 06:03:17;;;;;;;6.90;4.37;;;;;;;-0.61;100.00;99211.75;6134241;23;20205;-82
2023/01/21 06:05:45;;;;;;;8.87;5.20;;;;;;;-0.61;100.00;99227.53;6134692;23;20213;-81
2023/01/21 06:08:12;;;;;;;10.33;5.47;;;;;;;-0.78;100.00;99217.91;6183883;23;20651;-77
2023/01/21 06:10:38;;;;;;;8.67;5.60;;;;;;;-0.83;100.00;99212.28;6184366;23;20734;-78
2023/01/21 06:13:05;;;;;;;7.53;5.00;;;;;;;-0.90;100.00;99205.03;6184485;23;20216;-77
2023/01/21 06:15:32;;;;;;;9.93;6.20;;;;;;;-0.95;100.00;99230.97;6184619;23;20288;-77
2023/01/21 06:18:00;;;;;;;8.97;5.80;;;;;;;-0.95;100.00;99225.72;6184688;23;20281;-78
2023/01/21 06:20:29;;;;;;;8.03;5.83;;;;;;;-0.85;100.00;99227.41;6157744;23;20670;-78
2023/01/21 06:22:56;;;;;;;9.07;6.00;;;;;;;-0.94;100.00;99222.13;6184437;23;20212;-78
2023/01/21 06:25:24;;;;;;;9.33;6.67;;;;;;;-0.90;100.00;99214.72;6184344;23;20210;-77
2023/01/21 06:27:54;;;;;;;9.70;6.10;;;;;;;-0.97;100.00;99211.91;6158350;23;20209;-77
2023/01/21 06:30:22;;;;;;;9.57;6.57;;;;;;;-1.06;100.00;99225.97;6133124;23;20289;-78
2023/01/21 06:32:48;;;;;;;9.27;5.87;;;;;;;-0.93;100.00;99222.91;6184476;23;20210;-78
2023/01/21 06:35:15;;;;;;;7.93;5.90;;;;;;;-0.90;100.00;99223.44;6184287;23;20265;-77
2023/01/21 06:37:43;;;;;;;10.87;6.60;;;;;;;-0.89;100.00;99219.03;6184218;23;20217;-78
2023/01/21 06:40:11;;;;;;;8.80;6.43;;;;;;;-0.91;100.00;99228.84;6183497;23;20206;-77
2023/01/21 06:42:38;;;;;;;11.43;7.93;;;;;;;-0.84;100.00;99226.44;6158060;23;20202;-78
2023/01/21 06:45:05;;;;;;;11.23;6.90;;;;;;;-0.95;100.00;99230.97;6184335;23;20210;-78
2023/01/21 06:47:32;;;;;;;9.10;6.93;;;;;;;-0.93;100.00;99229.00;6184191;23;20214;-78
2023/01/21 06:49:58;;;;;;;10.67;6.53;;;;;;;-0.85;100.00;99222.16;6184390;23;20218;-77
2023/01/21 06:52:25;;;;;;;7.70;5.63;;;;;;;-0.79;100.00;99217.06;6183441;23;20714;-78
2023/01/21 06:54:52;;;;;;;7.97;5.23;;;;;;;-0.74;100.00;99219.22;6184180;23;20208;-78
2023/01/21 06:57:18;;;;;;;7.00;5.47;;;;;;;-0.72;100.00;99220.72;6183983;23;20207;-78
2023/01/21 06:59:45;;;;;;;8.03;5.50;;;;;;;-0.65;100.00;99224.38;6184176;23;20206;-78
2023/01/21 07:02:12;;;;;;;6.67;5.00;;;;;;;-0.54;100.00;99226.72;6183374;23;20289;-77
2023/01/21 07:04:38;;;;;;;8.93;5.00;;;;;;;-0.50;100.00;99224.59;6184273;23;20202;-79
2023/01/21 07:07:05;;;;;;;7.87;5.00;;;;;;;-0.41;100.00;99226.28;6183909;23;20205;-78
2023/01/21 07:09:32;;;;;;;7.03;4.47;;;;;;;-0.45;100.00;99227.56;6184349;23;20206;-77
2023/01/21 07:11:58;;;;;;;9.13;4.53;;;;;;;-0.46;100.00;99239.09;6157956;23;20210;-77
2023/01/21 07:14:25;;;;;;;6.63;4.00;;;;;;;-0.42;100.00;99244.88;6184080;23;20226;-77
2023/01/21 07:16:52;;;;;;;6.73;4.90;;;;;;;-0.57;100.00;99255.16;6184263;23;20206;-77
2023/01/21 07:19:19;;;;;;;5.93;4.63;;;;;;;-0.59;100.00;99260.59;6184437;23;20671;-77
2023/01/21 07:21:45;;;;;;;6.70;4.17;;;;;;;-0.57;100.00;99261.25;6184267;23;20236;-77
2023/01/21 07:24:12;;;;;;;7.17;4.33;;;;;;;-0.59;100.00;99257.94;6185152;23;20673;-77
2023/01/21 07:26:40;;;;;;;8.90;4.63;;;;;;;-0.67;100.00;99270.25;6186169;23;20213;-77
2023/01/21 07:29:07;;;;;;;7.03;4.23;;;;;;;-0.71;100.00;99261.03;6185754;23;20210;-77
2023/01/21 07:31:34;;;;;;;6.20;4.30;;;;;;;-0.68;100.00;99256.25;6184411;23;20592;-77
2023/01/21 07:34:01;;;;;;;7.57;4.97;;;;;;;-0.78;100.00;99273.97;6185118;23;20758;-75
2023/01/21 07:36:28;;;;;;;7.23;4.77;;;;;;;-0.83;100.00;99268.34;6185810;23;20200;-77
2023/01/21 07:38:54;;;;;;;9.10;4.73;;;;;;;-0.80;100.00;99278.56;6185623;23;20205;-77
2023/01/21 07:41:21;;;;;;;7.43;5.03;;;;;;;-0.82;100.00;99274.44;6185604;23;20755;-77
2023/01/21 07:43:49;;;;;;;8.13;4.70;;;;;;;-0.76;100.00;99269.38;6185764;23;20210;-79
2023/01/21 07:46:16;;;;;;;7.83;4.93;;;;;;;-0.80;100.00;99277.75;6185266;23;20206;-77
2023/01/21 07:48:43;;;;;;;9.27;4.73;;;;;;;-0.74;100.00;99274.47;6185934;23;20675;-77
2023/01/21 07:51:09;;;;;;;7.63;4.33;;;;;;;-0.83;100.00;99280.66;6185734;23;20201;-78
2023/01/21 07:53:36;;;;;;;8.10;4.93;;;;;;;-0.77;100.00;99278.25;6170957;23;20300;-78
2023/01/21 07:56:04;;;;;;;7.60;4.50;;;;;;;-0.73;100.00;99281.38;6184936;23;20202;-76
2023/01/21 07:58:31;;;;;;;8.53;5.13;;;;;;;-0.66;100.00;99280.63;6160421;23;20186;-77
2023/01/21 08:00:58;;;;;;;6.37;4.80;;;;;;;-0.67;100.00;99280.78;6185423;23;20198;-77
2023/01/21 08:03:24;;;;;;;7.33;4.30;;;;;;;-0.59;100.00;99273.75;6185481;23;20217;-77
2023/01/21 08:05:51;;;;;;;6.80;4.60;;;;;;;-0.55;100.00;99290.84;6185536;23;20205;-78
2023/01/21 08:08:18;;;;;;;8.67;4.80;;;;;;;-0.43;100.00;99278.25;6184800;23;20209;-77
2023/01/21 08:10:50;;;;;;;7.97;5.37;;;;;;;-0.59;100.00;99286.06;6185504;23;20214;-77
2023/01/21 08:13:16;;;;;;;6.17;4.17;;;;;;;-0.43;100.00;99286.16;6184230;23;20661;-77
2023/01/21 08:15:43;;;;;;;8.10;5.10;;;;;;;-0.49;100.00;99282.34;6184303;23;20544;-77
2023/01/21 08:18:09;;;;;;;5.63;4.27;;;;;;;-0.58;100.00;99293.81;6184980;23;20237;-77
2023/01/21 08:20:36;;;;;;;7.80;4.33;;;;;;;-0.41;100.00;99292.06;6185424;23;20265;-77
2023/01/21 08:23:02;;;;;;;7.30;4.63;;;;;;;-0.40;100.00;99291.09;6185546;23;20237;-78
2023/01/21 08:25:29;;;;;;;6.70;3.90;;;;;;;-0.34;100.00;99287.84;6185353;23;20209;-77
2023/01/21 08:27:57;;;;;;;5.93;4.17;;;;;;;-0.37;100.00;99289.97;6185376;23;20217;-78
2023/01/21 08:30:24;;;;;;;6.13;4.20;;;;;;;-0.33;100.00;99293.94;6184649;23;20648;-78
2023/01/21 08:32:51;;;;;;;6.63;3.77;;;;;;;-0.34;100.00;99289.66;6185545;23;20228;-77
2023/01/21 08:35:18;;;;;;;7.43;5.20;;;;;;;-0.32;100.00;99300.81;6185066;23;20206;-77
2023/01/21 08:37:45;;;;;;;13.87;8.10;;;;;;;-0.32;100.00;99309.56;6185539;23;20568;-78
2023/01/21 08:40:12;;;;;;;12.93;7.77;;;;;;;-0.34;100.00;99321.22;6184913;23;20233;-77
2023/01/21 08:42:39;;;;;;;9.57;6.77;;;;;;;-0.35;100.00;99315.13;6185225;23;20208;-77
2023/01/21 08:45:06;;;;;;;6.30;5.00;;;;;;;-0.22;100.00;99331.31;6185399;23;20206;-78
2023/01/21 08:47:33;;;;;;;5.77;4.63;;;;;;;-0.26;100.00;99324.72;6185359;23;20201;-78
2023/01/21 08:49:59;;;;;;;6.33;4.70;;;;;;;-0.22;100.00;99338.38;6183052;23;20210;-78
2023/01/21 08:52:26;;;;;;;5.83;4.63;;;;;;;-0.17;100.00;99349.28;6181590;23;20210;-77
2023/01/21 08:54:52;;;;;;;7.03;4.97;;;;;;;-0.09;100.00;99349.31;6184185;23;20541;-78
2023/01/21 08:57:19;;;;;;;6.73;4.70;;;;;;;-0.02;100.00;99351.16;6184683;23;20285;-77
2023/01/21 08:59:46;;;;;;;6.40;4.40;;;;;;;-0.01;100.00;99344.09;6183350;23;20284;-78
2023/01/21 09:02:12;;;;;;;6.27;4.63;;;;;;;0.07;100.00;99330.09;6182003;23;20261;-77
2023/01/21 09:04:39;;;;;;;6.70;4.73;;;;;;;0.14;100.00;99326.66;6183556;23;20241;-80
2023/01/21 09:07:05;;;;;;;4.97;3.67;;;;;;;0.08;100.00;99326.50;6182886;23;20654;-80
2023/01/21 09:09:32;;;;;;;6.10;4.03;;;;;;;0.23;100.00;99338.06;6184478;23;20701;-78
2023/01/21 09:11:59;;;;;;;6.10;3.87;;;;;;;0.22;100.00;99339.88;6184649;23;20670;-79
2023/01/21 09:14:25;;;;;;;5.90;4.23;;;;;;;0.28;100.00;99333.94;6182654;23;20212;-78
2023/01/21 09:16:54;;;;;;;7.27;4.00;;;;;;;0.27;100.00;99345.50;6183816;23;20210;-77
2023/01/21 09:19:22;;;;;;;5.80;4.17;;;;;;;0.26;100.00;99340.38;6181589;23;20281;-78
2023/01/21 09:21:51;;;;;;;5.70;4.07;;;;;;;0.44;100.00;99343.72;6157519;23;20217;-78
2023/01/21 09:24:17;;;;;;;5.37;4.20;;;;;;;0.51;100.00;99343.91;6183774;23;20201;-78
2023/01/21 09:26:44;;;;;;;5.80;4.50;;;;;;;0.49;100.00;99343.22;6184569;23;20217;-77
2023/01/21 09:29:11;;;;;;;5.23;3.77;;;;;;;0.42;100.00;99345.69;6184442;23;20669;-78
2023/01/21 09:31:37;;;;;;;5.30;3.93;;;;;;;0.50;100.00;99340.44;6158399;23;20217;-78
2023/01/21 09:34:04;;;;;;;6.27;4.40;;;;;;;0.52;100.00;99337.63;6183792;23;20249;-78
2023/01/21 09:36:33;;;;;;;5.20;3.90;;;;;;;0.52;100.00;99329.72;6184510;23;20546;-79
2023/01/21 09:39:00;;;;;;;6.13;4.10;;;;;;;0.57;100.00;99335.31;6183986;23;20233;-77
2023/01/21 09:41:43;;;;;;;6.30;4.47;;;;;;;0.48;100.00;99329.22;6183332;23;20264;-78
2023/01/21 09:44:14;;;;;;;8.90;4.83;;;;;;;0.39;100.00;99341.56;6154724;23;20824;-77
2023/01/21 09:46:44;;;;;;;5.27;3.90;;;;;;;0.43;100.00;99342.88;6154980;23;20231;-79
2023/01/21 09:49:41;;;;;;;4.70;4.20;;;;;;;0.50;100.00;99334.34;6182389;23;20268;-78
2023/01/21 09:52:35;;;;;;;5.33;3.70;;;;;;;0.47;100.00;99339.94;6170373;23;20216;-78
2023/01/21 09:55:03;;;;;;;4.73;3.60;;;;;;;0.41;100.00;99339.59;6155370;23;20209;-77
2023/01/21 09:57:57;;;;;;;5.40;4.33;;;;;;;0.35;100.00;99350.78;6183056;23;20526;-77
2023/01/21 10:00:34;;;;;;;6.53;4.20;;;;;;;0.39;100.00;99348.63;6182914;23;20206;-77
2023/01/21 10:03:16;;;;;;;4.67;3.50;;;;;;;0.32;100.00;99335.31;6157010;23;20280;-78
2023/01/21 10:05:51;;;;;;;5.77;4.70;;;;;;;0.33;100.00;99347.47;6182005;23;20210;-78
2023/01/21 10:08:59;;;;;;;5.67;4.40;;;;;;;0.49;100.00;99332.69;6181992;23;20283;-80
2023/01/21 10:11:50;;;;;;;4.43;3.47;;;;;;;0.64;100.00;99331.88;6125295;23;20729;-79
2023/01/21 10:14:54;;;;;;;4.50;3.70;;;;;;;0.46;100.00;99333.00;6155522;23;20581;-80
2023/01/21 10:17:46;;;;;;;4.53;3.60;;;;;;;0.66;100.00;99345.72;6184568;23;20206;-81
2023/01/21 10:20:50;;;;;;;5.90;3.40;;;;;;;0.59;100.00;99330.72;6184312;23;20253;-83
2023/01/21 10:23:26;;;;;;;4.53;3.70;;;;;;;0.46;100.00;99322.47;6158397;23;20667;-80
2023/01/21 10:25:54;;;;;;;4.67;3.20;;;;;;;0.43;100.00;99324.44;6157997;23;20205;-81
2023/01/21 10:28:23;;;;;;;3.40;2.43;;;;;;;0.34;100.00;99317.50;6183740;23;20198;-82
2023/01/21 10:30:55;;;;;;;4.60;3.20;;;;;;;0.31;100.00;99325.75;6158354;23;20272;-82
2023/01/21 10:33:29;;;;;;;5.40;3.77;;;;;;;0.17;100.00;99307.09;6159147;23;20210;-83
2023/01/21 10:36:17;;;;;;;3.43;2.70;;;;;;;0.19;100.00;99319.09;6136242;23;20210;-85
2023/01/21 10:38:59;;;;;;;3.80;3.03;;;;;;;0.30;100.00;99323.25;6159192;23;20210;-87
2023/01/21 10:41:35;;;;;;;3.87;2.63;;;;;;;0.08;100.00;99308.88;6159441;23;20267;-86
2023/01/21 10:44:20;;;;;;;3.20;2.50;;;;;;;0.21;100.00;99306.59;6158191;23;20659;-81
2023/01/21 10:47:05;;;;;;;3.63;2.40;;;;;;;0.30;100.00;99300.38;6158826;23;20237;-84
2023/01/21 10:49:34;;;;;;;4.50;3.10;;;;;;;0.30;100.00;99310.06;6185353;23;20733;-84
2023/01/21 10:52:33;;;;;;;3.13;2.70;;;;;;;0.32;100.00;99305.47;6134745;23;20210;-82
2023/01/21 10:55:19;;;;;;;5.30;3.33;;;;;;;0.24;100.00;99301.00;6147314;23;20206;-83
2023/01/21 10:57:59;;;;;;;3.80;2.80;;;;;;;0.26;100.00;99303.50;6187130;23;20670;-80
2023/01/21 11:00:28;;;;;;;6.03;3.87;;;;;;;0.40;100.00;99303.69;6171380;23;20262;-82
2023/01/21 11:03:12;;;;;;;4.17;3.00;;;;;;;0.27;100.00;99294.59;6147082;23;20206;-83
2023/01/21 11:05:39;;;;;;;3.70;2.70;;;;;;;0.30;100.00;99310.06;6163976;23;20256;-88
2023/01/21 11:08:08;;;;;;;3.73;2.83;;;;;;;0.33;100.00;99310.56;6163813;23;20217;-85
2023/01/21 11:10:35;;;;;;;3.27;2.80;;;;;;;0.25;100.00;99320.28;6116844;23;20217;-85
2023/01/21 11:13:08;;;;;;;4.17;3.10;;;;;;;0.26;100.00;99292.94;6162032;23;20210;-85
2023/01/21 11:15:44;;;;;;;3.80;3.20;;;;;;;0.43;100.00;99297.25;6144037;23;20265;-86
2023/01/21 11:18:32;;;;;;;4.47;3.13;;;;;;;0.54;100.00;99302.22;6177972;23;20225;-87
2023/01/21 11:21:14;;;;;;;5.00;3.50;;;;;;;0.40;100.00;99300.22;6143352;23;20216;-86
2023/01/21 11:24:13;;;;;;;6.70;4.20;;;;;;;0.59;100.00;99309.63;6147692;23;20213;-88
2023/01/21 11:26:51;;;;;;;3.60;2.80;;;;;;;0.46;100.00;99286.41;6175306;23;20224;-85
2023/01/21 11:29:20;;;;;;;5.63;3.20;;;;;;;0.45;100.00;99279.47;6119514;23;20205;-88
2023/01/21 11:32:03;;;;;;;4.33;3.20;;;;;;;0.55;100.00;99298.59;6192675;23;20217;-86
2023/01/21 11:34:31;;;;;;;3.73;2.83;;;;;;;0.60;100.00;99304.19;6159852;23;20221;-82
2023/01/21 11:37:04;;;;;;;4.17;3.30;;;;;;;0.43;100.00;99297.25;6184673;23;20228;-89
2023/01/21 11:39:41;;;;;;;3.80;3.00;;;;;;;0.40;100.00;99297.59;6158867;23;20201;-82
2023/01/21 11:42:14;;;;;;;4.77;3.00;;;;;;;0.47;100.00;99295.94;6153851;23;20228;-84
2023/01/21 11:44:57;;;;;;;3.47;2.93;;;;;;;0.53;100.00;99294.47;6137843;23;20209;-81